Aneth, Utah
Current Conditions -  °F | °C
As of 9:15 PM on Wednesday 28 Jan 2015 (Local Time) from KBDG Reporting Station
Clear Clear  
Wind Chill: 31°   Ceiling: Unl
Heat Index: 36°   Visibility: 10mi
Dew Point: 31°   Wind: 6mph
Humidity: 83%   Direction: 360°N
Pressure: 30.35"   Gusts: NA
Location:  37.22°N, 109.19°W
Report Text: KBDG 290415Z AUTO 36005KT 10SM CLR 02/M01 A3035 RMK AO1 T00201006
Loading
Personal Weather Stations






























Interactive Weather Map New forecast layout! Learn more

10-Day Weather Forecast

Advertisements
Track Severe Weather on mobile